sensor_id;sensor_type;location;lat;lon;timestamp;P1;durP1;ratioP1;P2;durP2;ratioP2
61702;SDS011;47622;47.726;3.298;2022-12-18T00:01:13;36.20;;;15.82;;
61702;SDS011;47622;47.726;3.298;2022-12-18T00:03:40;33.03;;;15.80;;
61702;SDS011;47622;47.726;3.298;2022-12-18T00:06:06;38.85;;;18.67;;
61702;SDS011;47622;47.726;3.298;2022-12-18T00:08:32;41.88;;;18.17;;
61702;SDS011;47622;47.726;3.298;2022-12-18T00:11:03;39.95;;;18.42;;
61702;SDS011;47622;47.726;3.298;2022-12-18T00:13:32;41.83;;;19.92;;
61702;SDS011;47622;47.726;3.298;2022-12-18T00:16:05;38.13;;;18.08;;
61702;SDS011;47622;47.726;3.298;2022-12-18T00:18:32;38.78;;;18.20;;
61702;SDS011;47622;47.726;3.298;2022-12-18T00:20:59;38.55;;;18.40;;
61702;SDS011;47622;47.726;3.298;2022-12-18T00:23:26;39.72;;;18.58;;
61702;SDS011;47622;47.726;3.298;2022-12-18T00:25:52;38.45;;;17.38;;
61702;SDS011;47622;47.726;3.298;2022-12-18T00:28:17;37.50;;;17.75;;
61702;SDS011;47622;47.726;3.298;2022-12-18T00:30:43;39.63;;;18.05;;
61702;SDS011;47622;47.726;3.298;2022-12-18T00:33:08;40.92;;;19.23;;
61702;SDS011;47622;47.726;3.298;2022-12-18T00:35:34;43.35;;;18.70;;
61702;SDS011;47622;47.726;3.298;2022-12-18T00:37:59;39.13;;;17.42;;
61702;SDS011;47622;47.726;3.298;2022-12-18T00:40:25;42.00;;;18.80;;
61702;SDS011;47622;47.726;3.298;2022-12-18T00:42:50;37.88;;;17.35;;
61702;SDS011;47622;47.726;3.298;2022-12-18T00:45:23;37.42;;;17.13;;
61702;SDS011;47622;47.726;3.298;2022-12-18T00:47:52;37.72;;;16.70;;
61702;SDS011;47622;47.726;3.298;2022-12-18T00:50:18;36.28;;;16.98;;
61702;SDS011;47622;47.726;3.298;2022-12-18T00:52:44;42.38;;;18.33;;
61702;SDS011;47622;47.726;3.298;2022-12-18T00:55:09;37.67;;;17.83;;
61702;SDS011;47622;47.726;3.298;2022-12-18T00:57:36;36.80;;;17.77;;
61702;SDS011;47622;47.726;3.298;2022-12-18T01:00:03;35.65;;;16.92;;
61702;SDS011;47622;47.726;3.298;2022-12-18T01:02:30;32.13;;;17.30;;
61702;SDS011;47622;47.726;3.298;2022-12-18T01:04:55;35.67;;;16.95;;
61702;SDS011;47622;47.726;3.298;2022-12-18T01:07:21;38.53;;;16.92;;
61702;SDS011;47622;47.726;3.298;2022-12-18T01:09:46;33.50;;;17.17;;
61702;SDS011;47622;47.726;3.298;2022-12-18T01:12:12;43.97;;;17.98;;
61702;SDS011;47622;47.726;3.298;2022-12-18T01:14:37;43.78;;;16.95;;
61702;SDS011;47622;47.726;3.298;2022-12-18T01:17:03;34.08;;;16.73;;
61702;SDS011;47622;47.726;3.298;2022-12-18T01:19:29;35.28;;;15.85;;
61702;SDS011;47622;47.726;3.298;2022-12-18T01:21:55;35.95;;;17.02;;
61702;SDS011;47622;47.726;3.298;2022-12-18T01:24:21;36.88;;;16.50;;
61702;SDS011;47622;47.726;3.298;2022-12-18T01:26:47;37.08;;;16.70;;
61702;SDS011;47622;47.726;3.298;2022-12-18T01:29:12;43.33;;;17.00;;
61702;SDS011;47622;47.726;3.298;2022-12-18T01:31:38;38.50;;;18.55;;
61702;SDS011;47622;47.726;3.298;2022-12-18T01:34:04;41.38;;;17.25;;
61702;SDS011;47622;47.726;3.298;2022-12-18T01:36:30;37.38;;;17.75;;
61702;SDS011;47622;47.726;3.298;2022-12-18T01:39:02;34.90;;;16.50;;
61702;SDS011;47622;47.726;3.298;2022-12-18T01:41:32;42.97;;;17.48;;
61702;SDS011;47622;47.726;3.298;2022-12-18T01:47:28;35.67;;;15.23;;
61702;SDS011;47622;47.726;3.298;2022-12-18T01:49:57;33.45;;;15.60;;
61702;SDS011;47622;47.726;3.298;2022-12-18T01:52:26;36.67;;;16.17;;
61702;SDS011;47622;47.726;3.298;2022-12-18T01:54:54;29.92;;;14.98;;
61702;SDS011;47622;47.726;3.298;2022-12-18T01:57:20;32.63;;;16.15;;
61702;SDS011;47622;47.726;3.298;2022-12-18T01:59:49;34.72;;;16.75;;
61702;SDS011;47622;47.726;3.298;2022-12-18T02:02:17;37.40;;;16.02;;
61702;SDS011;47622;47.726;3.298;2022-12-18T02:04:44;37.50;;;15.73;;
61702;SDS011;47622;47.726;3.298;2022-12-18T02:10:09;37.65;;;17.17;;
61702;SDS011;47622;47.726;3.298;2022-12-18T02:12:48;37.75;;;16.17;;
61702;SDS011;47622;47.726;3.298;2022-12-18T02:18:07;33.35;;;15.32;;
61702;SDS011;47622;47.726;3.298;2022-12-18T02:26:02;26.13;;;14.57;;
61702;SDS011;47622;47.726;3.298;2022-12-18T02:29:00;33.17;;;14.30;;
61702;SDS011;47622;47.726;3.298;2022-12-18T02:31:59;36.58;;;15.75;;
61702;SDS011;47622;47.726;3.298;2022-12-18T02:34:32;29.92;;;15.43;;
61702;SDS011;47622;47.726;3.298;2022-12-18T02:37:02;37.13;;;18.63;;
61702;SDS011;47622;47.726;3.298;2022-12-18T02:39:30;38.13;;;16.52;;
61702;SDS011;47622;47.726;3.298;2022-12-18T02:41:58;34.13;;;15.95;;
61702;SDS011;47622;47.726;3.298;2022-12-18T02:44:24;32.92;;;15.25;;
61702;SDS011;47622;47.726;3.298;2022-12-18T02:46:51;32.17;;;15.93;;
61702;SDS011;47622;47.726;3.298;2022-12-18T02:49:32;38.95;;;17.75;;
61702;SDS011;47622;47.726;3.298;2022-12-18T02:52:07;30.38;;;15.88;;
61702;SDS011;47622;47.726;3.298;2022-12-18T02:57:17;37.42;;;17.08;;
61702;SDS011;47622;47.726;3.298;2022-12-18T02:59:54;35.58;;;17.58;;
61702;SDS011;47622;47.726;3.298;2022-12-18T03:02:26;34.92;;;16.90;;
61702;SDS011;47622;47.726;3.298;2022-12-18T03:10:32;38.00;;;18.40;;
61702;SDS011;47622;47.726;3.298;2022-12-18T03:13:04;39.70;;;17.48;;
61702;SDS011;47622;47.726;3.298;2022-12-18T03:15:37;37.83;;;18.08;;
61702;SDS011;47622;47.726;3.298;2022-12-18T03:18:10;38.50;;;17.63;;
61702;SDS011;47622;47.726;3.298;2022-12-18T03:20:39;35.63;;;17.15;;
61702;SDS011;47622;47.726;3.298;2022-12-18T03:23:10;35.60;;;17.92;;
61702;SDS011;47622;47.726;3.298;2022-12-18T03:25:39;39.60;;;17.73;;
61702;SDS011;47622;47.726;3.298;2022-12-18T03:28:08;35.58;;;16.65;;
61702;SDS011;47622;47.726;3.298;2022-12-18T03:30:38;38.35;;;17.83;;
61702;SDS011;47622;47.726;3.298;2022-12-18T03:33:24;39.97;;;18.55;;
61702;SDS011;47622;47.726;3.298;2022-12-18T03:35:53;38.30;;;16.92;;
61702;SDS011;47622;47.726;3.298;2022-12-18T03:38:19;40.63;;;18.50;;
61702;SDS011;47622;47.726;3.298;2022-12-18T03:40:48;39.88;;;18.17;;
61702;SDS011;47622;47.726;3.298;2022-12-18T03:46:18;37.20;;;18.25;;
61702;SDS011;47622;47.726;3.298;2022-12-18T03:51:51;40.45;;;17.38;;
61702;SDS011;47622;47.726;3.298;2022-12-18T03:54:22;37.57;;;17.63;;
61702;SDS011;47622;47.726;3.298;2022-12-18T03:56:50;36.65;;;16.98;;
61702;SDS011;47622;47.726;3.298;2022-12-18T03:59:21;33.33;;;16.52;;
61702;SDS011;47622;47.726;3.298;2022-12-18T04:01:48;36.53;;;17.17;;
61702;SDS011;47622;47.726;3.298;2022-12-18T04:04:17;33.30;;;16.55;;
61702;SDS011;47622;47.726;3.298;2022-12-18T04:06:44;34.75;;;16.35;;
61702;SDS011;47622;47.726;3.298;2022-12-18T04:09:12;36.22;;;17.38;;
61702;SDS011;47622;47.726;3.298;2022-12-18T04:11:39;37.40;;;16.88;;
61702;SDS011;47622;47.726;3.298;2022-12-18T04:14:07;32.78;;;17.15;;
61702;SDS011;47622;47.726;3.298;2022-12-18T04:16:32;46.40;;;17.88;;
61702;SDS011;47622;47.726;3.298;2022-12-18T04:18:58;40.00;;;17.48;;
61702;SDS011;47622;47.726;3.298;2022-12-18T04:21:24;34.22;;;17.33;;
61702;SDS011;47622;47.726;3.298;2022-12-18T04:23:49;41.88;;;18.02;;
61702;SDS011;47622;47.726;3.298;2022-12-18T04:26:15;39.95;;;16.75;;
61702;SDS011;47622;47.726;3.298;2022-12-18T04:28:40;40.30;;;17.40;;
61702;SDS011;47622;47.726;3.298;2022-12-18T04:31:06;37.17;;;18.48;;
61702;SDS011;47622;47.726;3.298;2022-12-18T04:33:31;35.80;;;17.08;;
61702;SDS011;47622;47.726;3.298;2022-12-18T04:35:57;39.63;;;17.35;;
61702;SDS011;47622;47.726;3.298;2022-12-18T04:38:23;36.33;;;16.75;;
61702;SDS011;47622;47.726;3.298;2022-12-18T04:40:48;35.97;;;16.58;;
61702;SDS011;47622;47.726;3.298;2022-12-18T04:43:14;33.67;;;15.93;;
61702;SDS011;47622;47.726;3.298;2022-12-18T04:45:39;37.33;;;18.05;;
61702;SDS011;47622;47.726;3.298;2022-12-18T04:48:05;36.22;;;16.02;;
61702;SDS011;47622;47.726;3.298;2022-12-18T04:50:30;31.60;;;14.88;;
61702;SDS011;47622;47.726;3.298;2022-12-18T04:52:56;37.38;;;17.08;;
61702;SDS011;47622;47.726;3.298;2022-12-18T04:55:22;38.38;;;17.02;;
61702;SDS011;47622;47.726;3.298;2022-12-18T04:57:48;37.60;;;17.00;;
61702;SDS011;47622;47.726;3.298;2022-12-18T05:00:13;40.85;;;18.90;;
61702;SDS011;47622;47.726;3.298;2022-12-18T05:02:39;37.25;;;16.67;;
61702;SDS011;47622;47.726;3.298;2022-12-18T05:05:06;36.72;;;16.75;;
61702;SDS011;47622;47.726;3.298;2022-12-18T05:07:32;34.45;;;17.42;;
61702;SDS011;47622;47.726;3.298;2022-12-18T05:09:57;40.35;;;17.60;;
61702;SDS011;47622;47.726;3.298;2022-12-18T05:12:23;38.80;;;17.17;;
61702;SDS011;47622;47.726;3.298;2022-12-18T05:14:48;40.28;;;18.23;;
61702;SDS011;47622;47.726;3.298;2022-12-18T05:17:14;39.83;;;17.75;;
61702;SDS011;47622;47.726;3.298;2022-12-18T05:19:39;36.00;;;16.35;;
61702;SDS011;47622;47.726;3.298;2022-12-18T05:22:08;35.47;;;15.85;;
61702;SDS011;47622;47.726;3.298;2022-12-18T05:24:34;33.05;;;14.43;;
61702;SDS011;47622;47.726;3.298;2022-12-18T05:26:59;35.42;;;16.20;;
61702;SDS011;47622;47.726;3.298;2022-12-18T05:29:25;36.08;;;17.25;;
61702;SDS011;47622;47.726;3.298;2022-12-18T05:31:51;36.75;;;16.70;;
61702;SDS011;47622;47.726;3.298;2022-12-18T05:34:16;35.00;;;15.80;;
61702;SDS011;47622;47.726;3.298;2022-12-18T05:36:42;35.42;;;16.17;;
61702;SDS011;47622;47.726;3.298;2022-12-18T05:39:07;35.88;;;17.02;;
61702;SDS011;47622;47.726;3.298;2022-12-18T05:41:33;32.15;;;15.63;;
61702;SDS011;47622;47.726;3.298;2022-12-18T05:43:59;29.17;;;15.43;;
61702;SDS011;47622;47.726;3.298;2022-12-18T05:46:24;31.33;;;15.38;;
61702;SDS011;47622;47.726;3.298;2022-12-18T05:48:50;34.00;;;16.02;;
61702;SDS011;47622;47.726;3.298;2022-12-18T05:51:18;33.47;;;15.25;;
61702;SDS011;47622;47.726;3.298;2022-12-18T05:53:45;37.38;;;16.33;;
61702;SDS011;47622;47.726;3.298;2022-12-18T05:56:13;38.70;;;18.40;;
61702;SDS011;47622;47.726;3.298;2022-12-18T05:58:40;36.35;;;16.67;;
61702;SDS011;47622;47.726;3.298;2022-12-18T06:01:12;36.65;;;16.48;;
61702;SDS011;47622;47.726;3.298;2022-12-18T06:03:42;32.78;;;15.95;;
61702;SDS011;47622;47.726;3.298;2022-12-18T06:06:15;39.53;;;16.80;;
61702;SDS011;47622;47.726;3.298;2022-12-18T06:08:45;33.58;;;15.43;;
61702;SDS011;47622;47.726;3.298;2022-12-18T06:11:12;30.90;;;15.75;;
61702;SDS011;47622;47.726;3.298;2022-12-18T06:13:38;33.13;;;15.15;;
61702;SDS011;47622;47.726;3.298;2022-12-18T06:16:04;32.83;;;16.10;;
61702;SDS011;47622;47.726;3.298;2022-12-18T06:18:31;36.42;;;16.15;;
61702;SDS011;47622;47.726;3.298;2022-12-18T06:20:57;36.50;;;16.80;;
61702;SDS011;47622;47.726;3.298;2022-12-18T06:23:24;36.47;;;15.93;;
61702;SDS011;47622;47.726;3.298;2022-12-18T06:25:50;32.03;;;15.93;;
61702;SDS011;47622;47.726;3.298;2022-12-18T06:28:15;32.53;;;15.30;;
61702;SDS011;47622;47.726;3.298;2022-12-18T06:30:45;32.53;;;15.18;;
61702;SDS011;47622;47.726;3.298;2022-12-18T06:33:11;34.70;;;16.25;;
61702;SDS011;47622;47.726;3.298;2022-12-18T06:35:37;36.35;;;15.30;;
61702;SDS011;47622;47.726;3.298;2022-12-18T06:38:02;38.83;;;16.73;;
61702;SDS011;47622;47.726;3.298;2022-12-18T06:40:29;34.72;;;17.05;;
61702;SDS011;47622;47.726;3.298;2022-12-18T06:42:55;37.35;;;17.75;;
61702;SDS011;47622;47.726;3.298;2022-12-18T06:45:20;34.92;;;16.15;;
61702;SDS011;47622;47.726;3.298;2022-12-18T06:47:46;35.50;;;15.38;;
61702;SDS011;47622;47.726;3.298;2022-12-18T06:50:11;31.95;;;16.08;;
61702;SDS011;47622;47.726;3.298;2022-12-18T06:52:37;37.50;;;17.00;;
61702;SDS011;47622;47.726;3.298;2022-12-18T06:55:04;32.60;;;16.52;;
61702;SDS011;47622;47.726;3.298;2022-12-18T06:57:30;36.65;;;16.45;;
61702;SDS011;47622;47.726;3.298;2022-12-18T06:59:56;41.58;;;17.85;;
61702;SDS011;47622;47.726;3.298;2022-12-18T07:02:21;41.78;;;17.67;;
61702;SDS011;47622;47.726;3.298;2022-12-18T07:04:47;37.08;;;17.25;;
61702;SDS011;47622;47.726;3.298;2022-12-18T07:07:12;39.05;;;16.65;;
61702;SDS011;47622;47.726;3.298;2022-12-18T07:09:38;37.33;;;16.40;;
61702;SDS011;47622;47.726;3.298;2022-12-18T07:12:04;39.67;;;17.75;;
61702;SDS011;47622;47.726;3.298;2022-12-18T07:14:30;34.92;;;16.15;;
61702;SDS011;47622;47.726;3.298;2022-12-18T07:16:55;34.42;;;16.85;;
61702;SDS011;47622;47.726;3.298;2022-12-18T07:19:21;34.78;;;16.75;;
61702;SDS011;47622;47.726;3.298;2022-12-18T07:21:46;30.52;;;16.15;;
61702;SDS011;47622;47.726;3.298;2022-12-18T07:24:12;38.28;;;16.48;;
61702;SDS011;47622;47.726;3.298;2022-12-18T07:26:38;36.40;;;16.40;;
61702;SDS011;47622;47.726;3.298;2022-12-18T07:29:03;39.80;;;18.83;;
61702;SDS011;47622;47.726;3.298;2022-12-18T07:31:29;34.60;;;15.68;;
61702;SDS011;47622;47.726;3.298;2022-12-18T07:33:54;43.58;;;19.13;;
61702;SDS011;47622;47.726;3.298;2022-12-18T07:36:20;47.75;;;20.90;;
61702;SDS011;47622;47.726;3.298;2022-12-18T07:38:48;47.08;;;20.67;;
61702;SDS011;47622;47.726;3.298;2022-12-18T07:41:15;40.20;;;19.10;;
61702;SDS011;47622;47.726;3.298;2022-12-18T07:43:41;33.10;;;17.15;;
61702;SDS011;47622;47.726;3.298;2022-12-18T07:46:07;44.90;;;19.23;;
61702;SDS011;47622;47.726;3.298;2022-12-18T07:48:34;44.38;;;19.52;;
61702;SDS011;47622;47.726;3.298;2022-12-18T07:51:00;37.97;;;18.50;;
61702;SDS011;47622;47.726;3.298;2022-12-18T07:53:26;38.90;;;18.08;;
61702;SDS011;47622;47.726;3.298;2022-12-18T07:55:59;39.95;;;17.88;;
61702;SDS011;47622;47.726;3.298;2022-12-18T07:58:27;34.28;;;17.80;;
61702;SDS011;47622;47.726;3.298;2022-12-18T08:00:53;36.55;;;17.45;;
61702;SDS011;47622;47.726;3.298;2022-12-18T08:03:19;38.95;;;17.40;;
61702;SDS011;47622;47.726;3.298;2022-12-18T08:05:45;40.70;;;17.83;;
61702;SDS011;47622;47.726;3.298;2022-12-18T08:08:10;48.70;;;20.17;;
61702;SDS011;47622;47.726;3.298;2022-12-18T08:10:36;38.70;;;17.55;;
61702;SDS011;47622;47.726;3.298;2022-12-18T08:13:03;35.58;;;16.63;;
61702;SDS011;47622;47.726;3.298;2022-12-18T08:15:28;34.13;;;15.55;;
61702;SDS011;47622;47.726;3.298;2022-12-18T08:17:56;31.42;;;15.05;;
61702;SDS011;47622;47.726;3.298;2022-12-18T08:20:22;33.08;;;14.27;;
61702;SDS011;47622;47.726;3.298;2022-12-18T08:22:47;29.50;;;16.17;;
61702;SDS011;47622;47.726;3.298;2022-12-18T08:25:14;30.73;;;14.98;;
61702;SDS011;47622;47.726;3.298;2022-12-18T08:27:39;35.85;;;16.77;;
61702;SDS011;47622;47.726;3.298;2022-12-18T08:32:31;30.27;;;15.40;;
61702;SDS011;47622;47.726;3.298;2022-12-18T08:34:58;35.63;;;18.50;;
61702;SDS011;47622;47.726;3.298;2022-12-18T08:37:23;32.47;;;18.63;;
61702;SDS011;47622;47.726;3.298;2022-12-18T08:39:49;36.72;;;17.90;;
61702;SDS011;47622;47.726;3.298;2022-12-18T08:42:15;29.27;;;14.73;;
61702;SDS011;47622;47.726;3.298;2022-12-18T08:44:59;33.08;;;15.77;;
61702;SDS011;47622;47.726;3.298;2022-12-18T08:47:24;29.70;;;15.07;;
61702;SDS011;47622;47.726;3.298;2022-12-18T08:49:51;30.65;;;16.02;;
61702;SDS011;47622;47.726;3.298;2022-12-18T08:52:16;32.83;;;15.45;;
61702;SDS011;47622;47.726;3.298;2022-12-18T08:54:42;36.05;;;15.85;;
61702;SDS011;47622;47.726;3.298;2022-12-18T08:57:07;33.78;;;15.70;;
61702;SDS011;47622;47.726;3.298;2022-12-18T08:59:33;37.03;;;16.25;;
61702;SDS011;47622;47.726;3.298;2022-12-18T09:01:59;35.67;;;16.23;;
61702;SDS011;47622;47.726;3.298;2022-12-18T09:04:24;36.28;;;15.82;;
61702;SDS011;47622;47.726;3.298;2022-12-18T09:06:50;35.28;;;16.23;;
61702;SDS011;47622;47.726;3.298;2022-12-18T09:09:15;32.90;;;15.75;;
61702;SDS011;47622;47.726;3.298;2022-12-18T09:11:41;27.02;;;14.55;;
61702;SDS011;47622;47.726;3.298;2022-12-18T09:14:06;33.85;;;16.02;;
61702;SDS011;47622;47.726;3.298;2022-12-18T09:16:34;35.00;;;16.25;;
61702;SDS011;47622;47.726;3.298;2022-12-18T09:19:00;32.22;;;15.02;;
61702;SDS011;47622;47.726;3.298;2022-12-18T09:21:28;33.60;;;15.07;;
61702;SDS011;47622;47.726;3.298;2022-12-18T09:23:55;29.17;;;15.27;;
61702;SDS011;47622;47.726;3.298;2022-12-18T09:26:22;30.40;;;14.40;;
61702;SDS011;47622;47.726;3.298;2022-12-18T09:28:48;33.13;;;14.38;;
61702;SDS011;47622;47.726;3.298;2022-12-18T09:31:15;25.50;;;14.30;;
61702;SDS011;47622;47.726;3.298;2022-12-18T09:33:41;31.05;;;13.45;;
61702;SDS011;47622;47.726;3.298;2022-12-18T09:36:08;27.92;;;14.80;;
61702;SDS011;47622;47.726;3.298;2022-12-18T09:38:36;29.60;;;15.25;;
61702;SDS011;47622;47.726;3.298;2022-12-18T09:43:57;24.63;;;13.00;;
61702;SDS011;47622;47.726;3.298;2022-12-18T09:46:31;27.00;;;13.35;;
61702;SDS011;47622;47.726;3.298;2022-12-18T09:49:00;28.27;;;14.05;;
61702;SDS011;47622;47.726;3.298;2022-12-18T09:51:36;25.23;;;13.02;;
61702;SDS011;47622;47.726;3.298;2022-12-18T09:54:19;29.90;;;13.55;;
61702;SDS011;47622;47.726;3.298;2022-12-18T09:56:58;27.42;;;13.52;;
61702;SDS011;47622;47.726;3.298;2022-12-18T09:59:25;23.48;;;12.98;;
61702;SDS011;47622;47.726;3.298;2022-12-18T10:01:57;24.20;;;13.45;;
61702;SDS011;47622;47.726;3.298;2022-12-18T10:04:23;31.17;;;14.02;;
61702;SDS011;47622;47.726;3.298;2022-12-18T10:06:54;26.58;;;13.23;;
61702;SDS011;47622;47.726;3.298;2022-12-18T10:09:28;29.00;;;14.57;;
61702;SDS011;47622;47.726;3.298;2022-12-18T10:23:07;27.90;;;14.27;;
61702;SDS011;47622;47.726;3.298;2022-12-18T10:25:53;28.40;;;13.20;;
61702;SDS011;47622;47.726;3.298;2022-12-18T10:28:24;28.52;;;13.80;;
61702;SDS011;47622;47.726;3.298;2022-12-18T10:30:51;27.70;;;13.80;;
61702;SDS011;47622;47.726;3.298;2022-12-18T10:33:18;27.15;;;13.93;;
61702;SDS011;47622;47.726;3.298;2022-12-18T10:35:46;31.48;;;14.75;;
61702;SDS011;47622;47.726;3.298;2022-12-18T10:46:44;29.67;;;12.65;;
61702;SDS011;47622;47.726;3.298;2022-12-18T10:49:25;23.85;;;12.80;;
61702;SDS011;47622;47.726;3.298;2022-12-18T10:52:04;26.52;;;12.98;;
61702;SDS011;47622;47.726;3.298;2022-12-18T10:54:39;27.80;;;18.23;;
61702;SDS011;47622;47.726;3.298;2022-12-18T10:57:15;24.27;;;13.75;;
61702;SDS011;47622;47.726;3.298;2022-12-18T10:59:59;28.40;;;18.30;;
61702;SDS011;47622;47.726;3.298;2022-12-18T11:02:45;22.08;;;13.27;;
61702;SDS011;47622;47.726;3.298;2022-12-18T11:07:50;24.23;;;13.00;;
61702;SDS011;47622;47.726;3.298;2022-12-18T11:10:19;24.02;;;13.10;;
61702;SDS011;47622;47.726;3.298;2022-12-18T11:12:47;23.60;;;13.00;;
61702;SDS011;47622;47.726;3.298;2022-12-18T11:15:20;24.65;;;12.68;;
61702;SDS011;47622;47.726;3.298;2022-12-18T11:17:50;21.95;;;12.23;;
61702;SDS011;47622;47.726;3.298;2022-12-18T11:20:35;22.42;;;12.20;;
61702;SDS011;47622;47.726;3.298;2022-12-18T11:23:03;25.15;;;12.65;;
61702;SDS011;47622;47.726;3.298;2022-12-18T11:25:30;21.73;;;11.77;;
61702;SDS011;47622;47.726;3.298;2022-12-18T11:27:59;24.25;;;11.63;;
61702;SDS011;47622;47.726;3.298;2022-12-18T11:30:33;27.40;;;12.77;;
61702;SDS011;47622;47.726;3.298;2022-12-18T11:38:10;24.05;;;11.93;;
61702;SDS011;47622;47.726;3.298;2022-12-18T11:40:38;19.40;;;11.82;;
61702;SDS011;47622;47.726;3.298;2022-12-18T11:43:13;23.13;;;11.90;;
61702;SDS011;47622;47.726;3.298;2022-12-18T11:48:17;21.65;;;12.18;;
61702;SDS011;47622;47.726;3.298;2022-12-18T11:50:51;24.08;;;12.50;;
61702;SDS011;47622;47.726;3.298;2022-12-18T11:53:21;22.90;;;12.57;;
61702;SDS011;47622;47.726;3.298;2022-12-18T12:01:11;22.27;;;12.73;;
61702;SDS011;47622;47.726;3.298;2022-12-18T12:06:45;21.98;;;11.45;;
61702;SDS011;47622;47.726;3.298;2022-12-18T12:14:19;21.67;;;11.50;;
61702;SDS011;47622;47.726;3.298;2022-12-18T12:16:49;23.27;;;11.68;;
61702;SDS011;47622;47.726;3.298;2022-12-18T12:22:19;23.67;;;10.70;;
61702;SDS011;47622;47.726;3.298;2022-12-18T12:38:46;25.30;;;12.07;;
61702;SDS011;47622;47.726;3.298;2022-12-18T12:41:18;21.05;;;10.85;;
61702;SDS011;47622;47.726;3.298;2022-12-18T12:44:07;19.88;;;11.00;;
61702;SDS011;47622;47.726;3.298;2022-12-18T12:46:39;23.38;;;12.02;;
61702;SDS011;47622;47.726;3.298;2022-12-18T12:49:28;21.80;;;11.98;;
61702;SDS011;47622;47.726;3.298;2022-12-18T12:54:39;22.17;;;11.02;;
61702;SDS011;47622;47.726;3.298;2022-12-18T12:57:08;20.85;;;11.35;;
61702;SDS011;47622;47.726;3.298;2022-12-18T13:08:04;19.95;;;9.60;;
61702;SDS011;47622;47.726;3.298;2022-12-18T13:13:12;19.38;;;10.02;;
61702;SDS011;47622;47.726;3.298;2022-12-18T13:15:45;18.77;;;9.50;;
61702;SDS011;47622;47.726;3.298;2022-12-18T13:18:28;17.15;;;9.30;;
61702;SDS011;47622;47.726;3.298;2022-12-18T13:25:48;18.15;;;9.57;;
61702;SDS011;47622;47.726;3.298;2022-12-18T13:36:41;16.45;;;8.70;;
61702;SDS011;47622;47.726;3.298;2022-12-18T13:41:46;17.40;;;9.00;;
61702;SDS011;47622;47.726;3.298;2022-12-18T13:44:24;22.10;;;9.48;;
61702;SDS011;47622;47.726;3.298;2022-12-18T13:47:24;15.35;;;8.02;;
61702;SDS011;47622;47.726;3.298;2022-12-18T13:49:53;17.50;;;8.13;;
61702;SDS011;47622;47.726;3.298;2022-12-18T13:52:24;16.98;;;9.18;;
61702;SDS011;47622;47.726;3.298;2022-12-18T13:54:55;15.32;;;9.20;;
61702;SDS011;47622;47.726;3.298;2022-12-18T13:59:54;14.68;;;8.38;;
61702;SDS011;47622;47.726;3.298;2022-12-18T14:02:25;18.00;;;9.13;;
61702;SDS011;47622;47.726;3.298;2022-12-18T14:04:53;14.65;;;8.25;;
61702;SDS011;47622;47.726;3.298;2022-12-18T14:07:23;16.88;;;8.80;;
61702;SDS011;47622;47.726;3.298;2022-12-18T14:09:59;18.02;;;8.82;;
61702;SDS011;47622;47.726;3.298;2022-12-18T14:12:31;20.08;;;9.30;;
61702;SDS011;47622;47.726;3.298;2022-12-18T14:18:03;16.88;;;8.82;;
61702;SDS011;47622;47.726;3.298;2022-12-18T14:20:47;15.57;;;8.35;;
61702;SDS011;47622;47.726;3.298;2022-12-18T14:23:28;17.92;;;9.20;;
61702;SDS011;47622;47.726;3.298;2022-12-18T14:25:56;15.98;;;8.55;;
61702;SDS011;47622;47.726;3.298;2022-12-18T14:28:22;17.17;;;8.57;;
61702;SDS011;47622;47.726;3.298;2022-12-18T14:30:47;18.23;;;8.90;;
61702;SDS011;47622;47.726;3.298;2022-12-18T14:35:57;18.83;;;9.05;;
61702;SDS011;47622;47.726;3.298;2022-12-18T14:38:30;18.50;;;8.80;;
61702;SDS011;47622;47.726;3.298;2022-12-18T14:43:24;18.60;;;9.25;;
61702;SDS011;47622;47.726;3.298;2022-12-18T14:45:50;15.35;;;8.20;;
61702;SDS011;47622;47.726;3.298;2022-12-18T14:48:20;16.27;;;8.00;;
61702;SDS011;47622;47.726;3.298;2022-12-18T14:50:54;13.90;;;7.75;;
61702;SDS011;47622;47.726;3.298;2022-12-18T14:53:36;15.45;;;8.35;;
61702;SDS011;47622;47.726;3.298;2022-12-18T14:56:03;16.05;;;8.35;;
61702;SDS011;47622;47.726;3.298;2022-12-18T14:58:37;16.02;;;8.85;;
61702;SDS011;47622;47.726;3.298;2022-12-18T15:01:02;18.17;;;8.85;;
61702;SDS011;47622;47.726;3.298;2022-12-18T15:03:28;16.52;;;8.63;;
61702;SDS011;47622;47.726;3.298;2022-12-18T15:05:54;16.70;;;8.93;;
61702;SDS011;47622;47.726;3.298;2022-12-18T15:08:30;15.32;;;8.40;;
61702;SDS011;47622;47.726;3.298;2022-12-18T15:11:00;16.17;;;8.45;;
61702;SDS011;47622;47.726;3.298;2022-12-18T15:13:26;15.52;;;8.70;;
61702;SDS011;47622;47.726;3.298;2022-12-18T15:15:52;14.82;;;8.82;;
61702;SDS011;47622;47.726;3.298;2022-12-18T15:18:21;17.30;;;8.68;;
61702;SDS011;47622;47.726;3.298;2022-12-18T15:20:56;17.33;;;8.85;;
61702;SDS011;47622;47.726;3.298;2022-12-18T15:26:03;16.48;;;8.48;;
61702;SDS011;47622;47.726;3.298;2022-12-18T15:28:43;14.07;;;7.63;;
61702;SDS011;47622;47.726;3.298;2022-12-18T15:36:17;16.25;;;8.23;;
61702;SDS011;47622;47.726;3.298;2022-12-18T15:38:46;15.48;;;8.38;;
61702;SDS011;47622;47.726;3.298;2022-12-18T15:41:16;16.90;;;8.93;;
61702;SDS011;47622;47.726;3.298;2022-12-18T15:43:43;16.67;;;8.38;;
61702;SDS011;47622;47.726;3.298;2022-12-18T15:46:11;12.70;;;7.82;;
61702;SDS011;47622;47.726;3.298;2022-12-18T15:48:39;14.75;;;8.00;;
61702;SDS011;47622;47.726;3.298;2022-12-18T15:53:58;15.18;;;8.95;;
61702;SDS011;47622;47.726;3.298;2022-12-18T15:56:26;16.67;;;8.15;;
61702;SDS011;47622;47.726;3.298;2022-12-18T15:59:13;15.73;;;7.97;;
61702;SDS011;47622;47.726;3.298;2022-12-18T16:01:41;15.88;;;8.15;;
61702;SDS011;47622;47.726;3.298;2022-12-18T16:04:11;17.30;;;8.75;;
61702;SDS011;47622;47.726;3.298;2022-12-18T16:06:38;14.30;;;7.90;;
61702;SDS011;47622;47.726;3.298;2022-12-18T16:09:03;16.48;;;8.07;;
61702;SDS011;47622;47.726;3.298;2022-12-18T16:11:30;14.52;;;8.15;;
61702;SDS011;47622;47.726;3.298;2022-12-18T16:14:23;14.55;;;7.93;;
61702;SDS011;47622;47.726;3.298;2022-12-18T16:16:54;15.20;;;8.07;;
61702;SDS011;47622;47.726;3.298;2022-12-18T16:19:21;14.98;;;8.52;;
61702;SDS011;47622;47.726;3.298;2022-12-18T16:21:48;13.25;;;7.45;;
61702;SDS011;47622;47.726;3.298;2022-12-18T16:24:22;16.48;;;8.15;;
61702;SDS011;47622;47.726;3.298;2022-12-18T16:26:49;16.55;;;7.68;;
61702;SDS011;47622;47.726;3.298;2022-12-18T16:29:16;14.05;;;8.30;;
61702;SDS011;47622;47.726;3.298;2022-12-18T16:31:42;15.15;;;7.93;;
61702;SDS011;47622;47.726;3.298;2022-12-18T16:34:22;15.88;;;8.32;;
61702;SDS011;47622;47.726;3.298;2022-12-18T16:36:50;22.52;;;9.32;;
61702;SDS011;47622;47.726;3.298;2022-12-18T16:39:18;13.85;;;7.50;;
61702;SDS011;47622;47.726;3.298;2022-12-18T16:41:44;17.85;;;8.85;;
61702;SDS011;47622;47.726;3.298;2022-12-18T16:44:10;18.02;;;8.38;;
61702;SDS011;47622;47.726;3.298;2022-12-18T16:46:36;13.73;;;8.77;;
61702;SDS011;47622;47.726;3.298;2022-12-18T16:49:02;15.05;;;7.93;;
61702;SDS011;47622;47.726;3.298;2022-12-18T16:51:28;15.88;;;8.00;;
61702;SDS011;47622;47.726;3.298;2022-12-18T16:53:58;16.63;;;8.25;;
61702;SDS011;47622;47.726;3.298;2022-12-18T16:56:23;15.45;;;8.45;;
61702;SDS011;47622;47.726;3.298;2022-12-18T16:58:50;16.90;;;8.88;;